sensor_id;sensor_type;location;lat;lon;timestamp;P1;P2;P0
55754;PMS5003;41674;52.290;-1.474;2023-04-21T00:02:10;19;16;
55754;PMS5003;41674;52.290;-1.474;2023-04-21T00:04:40;18;15;
55754;PMS5003;41674;52.290;-1.474;2023-04-21T00:07:10;19;15;
55754;PMS5003;41674;52.290;-1.474;2023-04-21T00:09:39;14;14;
55754;PMS5003;41674;52.290;-1.474;2023-04-21T00:12:09;18;16;
55754;PMS5003;41674;52.290;-1.474;2023-04-21T00:14:38;16;14;
55754;PMS5003;41674;52.290;-1.474;2023-04-21T00:17:08;17;14;
55754;PMS5003;41674;52.290;-1.474;2023-04-21T00:19:37;16;14;
55754;PMS5003;41674;52.290;-1.474;2023-04-21T00:22:06;22;18;
55754;PMS5003;41674;52.290;-1.474;2023-04-21T00:24:36;20;18;
55754;PMS5003;41674;52.290;-1.474;2023-04-21T00:27:05;21;20;
55754;PMS5003;41674;52.290;-1.474;2023-04-21T00:29:35;19;17;
55754;PMS5003;41674;52.290;-1.474;2023-04-21T00:32:04;22;19;
55754;PMS5003;41674;52.290;-1.474;2023-04-21T00:34:33;17;16;
55754;PMS5003;41674;52.290;-1.474;2023-04-21T00:37:03;21;19;
55754;PMS5003;41674;52.290;-1.474;2023-04-21T00:39:33;17;16;
55754;PMS5003;41674;52.290;-1.474;2023-04-21T00:42:02;25;21;
55754;PMS5003;41674;52.290;-1.474;2023-04-21T00:44:31;20;17;
55754;PMS5003;41674;52.290;-1.474;2023-04-21T00:47:00;19;17;
55754;PMS5003;41674;52.290;-1.474;2023-04-21T00:49:29;21;20;
55754;PMS5003;41674;52.290;-1.474;2023-04-21T00:51:59;22;20;
55754;PMS5003;41674;52.290;-1.474;2023-04-21T00:54:29;17;16;
55754;PMS5003;41674;52.290;-1.474;2023-04-21T00:56:58;21;19;
55754;PMS5003;41674;52.290;-1.474;2023-04-21T00:59:27;22;22;
55754;PMS5003;41674;52.290;-1.474;2023-04-21T01:01:56;19;17;
55754;PMS5003;41674;52.290;-1.474;2023-04-21T01:04:25;22;19;
55754;PMS5003;41674;52.290;-1.474;2023-04-21T01:06:54;19;16;
55754;PMS5003;41674;52.290;-1.474;2023-04-21T01:09:24;18;17;
55754;PMS5003;41674;52.290;-1.474;2023-04-21T01:11:59;19;19;
55754;PMS5003;41674;52.290;-1.474;2023-04-21T01:14:24;21;19;
55754;PMS5003;41674;52.290;-1.474;2023-04-21T01:16:53;20;18;
55754;PMS5003;41674;52.290;-1.474;2023-04-21T01:19:22;20;16;
55754;PMS5003;41674;52.290;-1.474;2023-04-21T01:21:52;18;17;
55754;PMS5003;41674;52.290;-1.474;2023-04-21T01:24:21;16;15;
55754;PMS5003;41674;52.290;-1.474;2023-04-21T01:26:50;18;15;
55754;PMS5003;41674;52.290;-1.474;2023-04-21T01:29:20;20;18;
55754;PMS5003;41674;52.290;-1.474;2023-04-21T01:31:49;20;19;
55754;PMS5003;41674;52.290;-1.474;2023-04-21T01:34:19;23;19;
55754;PMS5003;41674;52.290;-1.474;2023-04-21T01:36:48;18;17;
55754;PMS5003;41674;52.290;-1.474;2023-04-21T01:39:18;16;16;
55754;PMS5003;41674;52.290;-1.474;2023-04-21T01:41:47;18;17;
55754;PMS5003;41674;52.290;-1.474;2023-04-21T01:44:18;18;16;
55754;PMS5003;41674;52.290;-1.474;2023-04-21T01:46:47;17;14;
55754;PMS5003;41674;52.290;-1.474;2023-04-21T01:49:18;18;18;
55754;PMS5003;41674;52.290;-1.474;2023-04-21T01:51:46;19;15;
55754;PMS5003;41674;52.290;-1.474;2023-04-21T01:54:16;19;16;
55754;PMS5003;41674;52.290;-1.474;2023-04-21T01:56:45;15;14;
55754;PMS5003;41674;52.290;-1.474;2023-04-21T01:59:15;16;15;
55754;PMS5003;41674;52.290;-1.474;2023-04-21T02:01:44;15;13;
55754;PMS5003;41674;52.290;-1.474;2023-04-21T02:04:14;20;18;
55754;PMS5003;41674;52.290;-1.474;2023-04-21T02:06:43;16;14;
55754;PMS5003;41674;52.290;-1.474;2023-04-21T02:09:12;16;13;
55754;PMS5003;41674;52.290;-1.474;2023-04-21T02:11:42;14;14;
55754;PMS5003;41674;52.290;-1.474;2023-04-21T02:14:12;14;14;
55754;PMS5003;41674;52.290;-1.474;2023-04-21T02:16:41;14;12;
55754;PMS5003;41674;52.290;-1.474;2023-04-21T02:19:10;16;13;
55754;PMS5003;41674;52.290;-1.474;2023-04-21T02:21:40;12;12;
55754;PMS5003;41674;52.290;-1.474;2023-04-21T02:24:10;14;12;
55754;PMS5003;41674;52.290;-1.474;2023-04-21T02:26:39;20;16;
55754;PMS5003;41674;52.290;-1.474;2023-04-21T02:29:09;14;13;
55754;PMS5003;41674;52.290;-1.474;2023-04-21T02:31:38;16;16;
55754;PMS5003;41674;52.290;-1.474;2023-04-21T02:34:08;18;18;
55754;PMS5003;41674;52.290;-1.474;2023-04-21T02:36:37;19;17;
55754;PMS5003;41674;52.290;-1.474;2023-04-21T02:39:06;19;18;
55754;PMS5003;41674;52.290;-1.474;2023-04-21T02:41:35;20;19;
55754;PMS5003;41674;52.290;-1.474;2023-04-21T02:44:05;18;18;
55754;PMS5003;41674;52.290;-1.474;2023-04-21T02:46:35;15;15;
55754;PMS5003;41674;52.290;-1.474;2023-04-21T02:49:04;15;15;
55754;PMS5003;41674;52.290;-1.474;2023-04-21T02:51:34;15;14;
55754;PMS5003;41674;52.290;-1.474;2023-04-21T02:54:04;19;16;
55754;PMS5003;41674;52.290;-1.474;2023-04-21T02:56:33;24;21;
55754;PMS5003;41674;52.290;-1.474;2023-04-21T02:59:03;21;16;
55754;PMS5003;41674;52.290;-1.474;2023-04-21T03:01:32;18;18;
55754;PMS5003;41674;52.290;-1.474;2023-04-21T03:04:02;19;18;
55754;PMS5003;41674;52.290;-1.474;2023-04-21T03:06:31;19;17;
55754;PMS5003;41674;52.290;-1.474;2023-04-21T03:09:00;23;19;
55754;PMS5003;41674;52.290;-1.474;2023-04-21T03:11:30;21;18;
55754;PMS5003;41674;52.290;-1.474;2023-04-21T03:14:00;24;21;
55754;PMS5003;41674;52.290;-1.474;2023-04-21T03:16:29;20;19;
55754;PMS5003;41674;52.290;-1.474;2023-04-21T03:18:59;17;17;
55754;PMS5003;41674;52.290;-1.474;2023-04-21T03:21:28;26;22;
55754;PMS5003;41674;52.290;-1.474;2023-04-21T03:23:57;23;20;
55754;PMS5003;41674;52.290;-1.474;2023-04-21T03:26:27;26;23;
55754;PMS5003;41674;52.290;-1.474;2023-04-21T03:28:56;27;25;
55754;PMS5003;41674;52.290;-1.474;2023-04-21T03:31:26;26;23;
55754;PMS5003;41674;52.290;-1.474;2023-04-21T03:33:55;22;21;
55754;PMS5003;41674;52.290;-1.474;2023-04-21T03:36:25;23;22;
55754;PMS5003;41674;52.290;-1.474;2023-04-21T03:38:55;23;20;
55754;PMS5003;41674;52.290;-1.474;2023-04-21T03:41:24;22;20;
55754;PMS5003;41674;52.290;-1.474;2023-04-21T03:43:53;25;20;
55754;PMS5003;41674;52.290;-1.474;2023-04-21T03:46:23;29;24;
55754;PMS5003;41674;52.290;-1.474;2023-04-21T03:48:53;24;22;
55754;PMS5003;41674;52.290;-1.474;2023-04-21T03:51:22;19;17;
55754;PMS5003;41674;52.290;-1.474;2023-04-21T03:53:52;24;20;
55754;PMS5003;41674;52.290;-1.474;2023-04-21T03:56:20;25;22;
55754;PMS5003;41674;52.290;-1.474;2023-04-21T03:58:50;24;22;
55754;PMS5003;41674;52.290;-1.474;2023-04-21T04:01:20;20;20;
55754;PMS5003;41674;52.290;-1.474;2023-04-21T04:03:49;25;23;
55754;PMS5003;41674;52.290;-1.474;2023-04-21T04:06:24;21;18;
55754;PMS5003;41674;52.290;-1.474;2023-04-21T04:08:48;29;25;
55754;PMS5003;41674;52.290;-1.474;2023-04-21T04:11:18;29;21;
55754;PMS5003;41674;52.290;-1.474;2023-04-21T04:13:48;27;24;
55754;PMS5003;41674;52.290;-1.474;2023-04-21T04:16:17;32;26;
55754;PMS5003;41674;52.290;-1.474;2023-04-21T04:18:47;25;23;
55754;PMS5003;41674;52.290;-1.474;2023-04-21T04:21:16;28;27;
55754;PMS5003;41674;52.290;-1.474;2023-04-21T04:23:45;27;23;
55754;PMS5003;41674;52.290;-1.474;2023-04-21T04:26:15;33;29;
55754;PMS5003;41674;52.290;-1.474;2023-04-21T04:28:44;31;28;
55754;PMS5003;41674;52.290;-1.474;2023-04-21T04:31:13;29;26;
55754;PMS5003;41674;52.290;-1.474;2023-04-21T04:33:43;28;23;
55754;PMS5003;41674;52.290;-1.474;2023-04-21T04:36:12;26;24;
55754;PMS5003;41674;52.290;-1.474;2023-04-21T04:38:42;31;30;
55754;PMS5003;41674;52.290;-1.474;2023-04-21T04:41:11;30;26;
55754;PMS5003;41674;52.290;-1.474;2023-04-21T04:43:40;29;27;
55754;PMS5003;41674;52.290;-1.474;2023-04-21T04:46:10;26;24;
55754;PMS5003;41674;52.290;-1.474;2023-04-21T04:48:39;26;26;
55754;PMS5003;41674;52.290;-1.474;2023-04-21T04:51:08;28;25;
55754;PMS5003;41674;52.290;-1.474;2023-04-21T04:53:37;30;28;
55754;PMS5003;41674;52.290;-1.474;2023-04-21T04:56:07;29;25;
55754;PMS5003;41674;52.290;-1.474;2023-04-21T04:58:36;27;23;
55754;PMS5003;41674;52.290;-1.474;2023-04-21T05:01:10;32;27;
55754;PMS5003;41674;52.290;-1.474;2023-04-21T05:03:35;32;24;
55754;PMS5003;41674;52.290;-1.474;2023-04-21T05:06:04;28;28;
55754;PMS5003;41674;52.290;-1.474;2023-04-21T05:08:33;27;24;
55754;PMS5003;41674;52.290;-1.474;2023-04-21T05:11:03;31;27;
55754;PMS5003;41674;52.290;-1.474;2023-04-21T05:13:32;32;30;
55754;PMS5003;41674;52.290;-1.474;2023-04-21T05:16:02;32;26;
55754;PMS5003;41674;52.290;-1.474;2023-04-21T05:18:31;32;30;
55754;PMS5003;41674;52.290;-1.474;2023-04-21T05:21:01;27;25;
55754;PMS5003;41674;52.290;-1.474;2023-04-21T05:23:30;37;31;
55754;PMS5003;41674;52.290;-1.474;2023-04-21T05:25:59;34;29;
55754;PMS5003;41674;52.290;-1.474;2023-04-21T05:28:28;34;29;
55754;PMS5003;41674;52.290;-1.474;2023-04-21T05:30:57;28;25;
55754;PMS5003;41674;52.290;-1.474;2023-04-21T05:33:27;32;28;
55754;PMS5003;41674;52.290;-1.474;2023-04-21T05:35:57;28;25;
55754;PMS5003;41674;52.290;-1.474;2023-04-21T05:38:26;32;30;
55754;PMS5003;41674;52.290;-1.474;2023-04-21T05:40:56;26;24;
55754;PMS5003;41674;52.290;-1.474;2023-04-21T05:43:25;29;24;
55754;PMS5003;41674;52.290;-1.474;2023-04-21T05:45:54;32;29;
55754;PMS5003;41674;52.290;-1.474;2023-04-21T05:48:24;34;28;
55754;PMS5003;41674;52.290;-1.474;2023-04-21T05:50:53;35;27;
55754;PMS5003;41674;52.290;-1.474;2023-04-21T05:53:23;28;26;
55754;PMS5003;41674;52.290;-1.474;2023-04-21T05:55:52;26;24;
55754;PMS5003;41674;52.290;-1.474;2023-04-21T05:58:22;30;29;
55754;PMS5003;41674;52.290;-1.474;2023-04-21T06:00:51;30;28;
55754;PMS5003;41674;52.290;-1.474;2023-04-21T06:03:21;33;27;
55754;PMS5003;41674;52.290;-1.474;2023-04-21T06:05:52;26;26;
55754;PMS5003;41674;52.290;-1.474;2023-04-21T06:08:20;33;28;
55754;PMS5003;41674;52.290;-1.474;2023-04-21T06:10:49;28;25;
55754;PMS5003;41674;52.290;-1.474;2023-04-21T06:13:19;34;27;
55754;PMS5003;41674;52.290;-1.474;2023-04-21T06:15:48;27;23;
55754;PMS5003;41674;52.290;-1.474;2023-04-21T06:18:17;29;24;
55754;PMS5003;41674;52.290;-1.474;2023-04-21T06:20:49;25;22;
55754;PMS5003;41674;52.290;-1.474;2023-04-21T06:23:16;28;23;
55754;PMS5003;41674;52.290;-1.474;2023-04-21T06:25:45;25;23;
55754;PMS5003;41674;52.290;-1.474;2023-04-21T06:28:15;29;28;
55754;PMS5003;41674;52.290;-1.474;2023-04-21T06:30:44;26;26;
55754;PMS5003;41674;52.290;-1.474;2023-04-21T06:33:13;23;21;
55754;PMS5003;41674;52.290;-1.474;2023-04-21T06:35:43;26;22;
55754;PMS5003;41674;52.290;-1.474;2023-04-21T06:38:12;29;24;
55754;PMS5003;41674;52.290;-1.474;2023-04-21T06:40:42;25;22;
55754;PMS5003;41674;52.290;-1.474;2023-04-21T06:43:11;22;21;
55754;PMS5003;41674;52.290;-1.474;2023-04-21T06:45:40;20;20;
55754;PMS5003;41674;52.290;-1.474;2023-04-21T06:48:09;23;23;
55754;PMS5003;41674;52.290;-1.474;2023-04-21T06:50:38;23;22;
55754;PMS5003;41674;52.290;-1.474;2023-04-21T06:53:08;24;22;
55754;PMS5003;41674;52.290;-1.474;2023-04-21T06:55:37;27;24;
55754;PMS5003;41674;52.290;-1.474;2023-04-21T06:58:06;26;24;
55754;PMS5003;41674;52.290;-1.474;2023-04-21T07:00:36;24;21;
55754;PMS5003;41674;52.290;-1.474;2023-04-21T07:03:05;25;24;
55754;PMS5003;41674;52.290;-1.474;2023-04-21T07:05:35;28;26;
55754;PMS5003;41674;52.290;-1.474;2023-04-21T07:08:04;29;26;
55754;PMS5003;41674;52.290;-1.474;2023-04-21T07:10:33;22;20;
55754;PMS5003;41674;52.290;-1.474;2023-04-21T07:13:02;22;21;
55754;PMS5003;41674;52.290;-1.474;2023-04-21T07:15:32;25;22;
55754;PMS5003;41674;52.290;-1.474;2023-04-21T07:18:01;18;15;
55754;PMS5003;41674;52.290;-1.474;2023-04-21T07:20:31;25;22;
55754;PMS5003;41674;52.290;-1.474;2023-04-21T07:23:00;23;21;
55754;PMS5003;41674;52.290;-1.474;2023-04-21T07:25:29;26;25;
55754;PMS5003;41674;52.290;-1.474;2023-04-21T07:27:59;26;20;
55754;PMS5003;41674;52.290;-1.474;2023-04-21T07:30:29;23;21;
55754;PMS5003;41674;52.290;-1.474;2023-04-21T07:32:58;26;21;
55754;PMS5003;41674;52.290;-1.474;2023-04-21T07:35:28;24;23;
55754;PMS5003;41674;52.290;-1.474;2023-04-21T07:37:57;28;23;
55754;PMS5003;41674;52.290;-1.474;2023-04-21T07:40:27;28;24;
55754;PMS5003;41674;52.290;-1.474;2023-04-21T07:42:56;25;24;
55754;PMS5003;41674;52.290;-1.474;2023-04-21T07:45:26;25;22;
55754;PMS5003;41674;52.290;-1.474;2023-04-21T07:47:56;28;21;
55754;PMS5003;41674;52.290;-1.474;2023-04-21T07:50:25;29;26;
55754;PMS5003;41674;52.290;-1.474;2023-04-21T07:52:55;23;22;
55754;PMS5003;41674;52.290;-1.474;2023-04-21T07:55:24;29;27;
55754;PMS5003;41674;52.290;-1.474;2023-04-21T07:57:54;26;23;
55754;PMS5003;41674;52.290;-1.474;2023-04-21T08:00:23;21;20;
55754;PMS5003;41674;52.290;-1.474;2023-04-21T08:02:52;23;23;
55754;PMS5003;41674;52.290;-1.474;2023-04-21T08:05:21;28;25;
55754;PMS5003;41674;52.290;-1.474;2023-04-21T08:07:51;28;25;
55754;PMS5003;41674;52.290;-1.474;2023-04-21T08:10:20;27;23;
55754;PMS5003;41674;52.290;-1.474;2023-04-21T08:12:50;24;23;
55754;PMS5003;41674;52.290;-1.474;2023-04-21T08:15:20;56;52;
55754;PMS5003;41674;52.290;-1.474;2023-04-21T08:17:49;48;43;
55754;PMS5003;41674;52.290;-1.474;2023-04-21T08:20:19;39;34;
55754;PMS5003;41674;52.290;-1.474;2023-04-21T08:22:48;24;23;
55754;PMS5003;41674;52.290;-1.474;2023-04-21T08:25:18;27;25;
55754;PMS5003;41674;52.290;-1.474;2023-04-21T08:27:47;22;22;
55754;PMS5003;41674;52.290;-1.474;2023-04-21T08:30:16;23;22;
55754;PMS5003;41674;52.290;-1.474;2023-04-21T08:32:46;20;20;
55754;PMS5003;41674;52.290;-1.474;2023-04-21T08:35:16;26;24;
55754;PMS5003;41674;52.290;-1.474;2023-04-21T08:37:45;25;23;
55754;PMS5003;41674;52.290;-1.474;2023-04-21T08:40:15;24;23;
55754;PMS5003;41674;52.290;-1.474;2023-04-21T08:42:45;26;23;
55754;PMS5003;41674;52.290;-1.474;2023-04-21T08:45:14;20;19;
55754;PMS5003;41674;52.290;-1.474;2023-04-21T08:47:43;24;20;
55754;PMS5003;41674;52.290;-1.474;2023-04-21T08:50:12;27;26;
55754;PMS5003;41674;52.290;-1.474;2023-04-21T08:52:42;25;22;
55754;PMS5003;41674;52.290;-1.474;2023-04-21T08:55:11;27;24;
55754;PMS5003;41674;52.290;-1.474;2023-04-21T08:57:40;23;19;
55754;PMS5003;41674;52.290;-1.474;2023-04-21T09:00:11;22;21;
55754;PMS5003;41674;52.290;-1.474;2023-04-21T09:05:09;26;25;
55754;PMS5003;41674;52.290;-1.474;2023-04-21T09:07:38;24;22;
55754;PMS5003;41674;52.290;-1.474;2023-04-21T09:10:07;29;26;
55754;PMS5003;41674;52.290;-1.474;2023-04-21T09:12:37;26;25;
55754;PMS5003;41674;52.290;-1.474;2023-04-21T09:15:07;24;23;
55754;PMS5003;41674;52.290;-1.474;2023-04-21T09:17:35;25;23;
55754;PMS5003;41674;52.290;-1.474;2023-04-21T09:22:36;25;23;
55754;PMS5003;41674;52.290;-1.474;2023-04-21T09:25:03;20;19;
55754;PMS5003;41674;52.290;-1.474;2023-04-21T09:27:34;21;21;
55754;PMS5003;41674;52.290;-1.474;2023-04-21T09:30:02;21;21;
55754;PMS5003;41674;52.290;-1.474;2023-04-21T09:32:35;19;19;
55754;PMS5003;41674;52.290;-1.474;2023-04-21T09:35:01;26;22;
55754;PMS5003;41674;52.290;-1.474;2023-04-21T09:37:31;23;21;
55754;PMS5003;41674;52.290;-1.474;2023-04-21T09:40:00;28;23;
55754;PMS5003;41674;52.290;-1.474;2023-04-21T09:42:29;22;21;
55754;PMS5003;41674;52.290;-1.474;2023-04-21T09:44:58;20;20;
55754;PMS5003;41674;52.290;-1.474;2023-04-21T09:47:28;26;22;
55754;PMS5003;41674;52.290;-1.474;2023-04-21T09:49:57;23;23;
55754;PMS5003;41674;52.290;-1.474;2023-04-21T09:52:27;22;21;
55754;PMS5003;41674;52.290;-1.474;2023-04-21T09:54:59;31;23;
55754;PMS5003;41674;52.290;-1.474;2023-04-21T09:57:26;27;25;
55754;PMS5003;41674;52.290;-1.474;2023-04-21T09:59:58;29;25;
55754;PMS5003;41674;52.290;-1.474;2023-04-21T10:02:25;23;22;
55754;PMS5003;41674;52.290;-1.474;2023-04-21T10:04:54;25;22;
55754;PMS5003;41674;52.290;-1.474;2023-04-21T10:07:23;23;22;
55754;PMS5003;41674;52.290;-1.474;2023-04-21T10:09:53;26;23;
55754;PMS5003;41674;52.290;-1.474;2023-04-21T10:12:22;26;24;
55754;PMS5003;41674;52.290;-1.474;2023-04-21T10:14:52;20;19;
55754;PMS5003;41674;52.290;-1.474;2023-04-21T10:17:22;20;18;
55754;PMS5003;41674;52.290;-1.474;2023-04-21T10:19:51;16;16;
55754;PMS5003;41674;52.290;-1.474;2023-04-21T10:22:26;20;19;
55754;PMS5003;41674;52.290;-1.474;2023-04-21T10:24:49;16;15;
55754;PMS5003;41674;52.290;-1.474;2023-04-21T10:29:48;19;18;
55754;PMS5003;41674;52.290;-1.474;2023-04-21T10:34:46;21;19;
55754;PMS5003;41674;52.290;-1.474;2023-04-21T10:37:16;20;17;
55754;PMS5003;41674;52.290;-1.474;2023-04-21T10:39:50;15;14;
55754;PMS5003;41674;52.290;-1.474;2023-04-21T10:42:19;20;19;
55754;PMS5003;41674;52.290;-1.474;2023-04-21T10:44:50;19;16;
55754;PMS5003;41674;52.290;-1.474;2023-04-21T10:49:43;18;16;
55754;PMS5003;41674;52.290;-1.474;2023-04-21T10:52:12;20;17;
55754;PMS5003;41674;52.290;-1.474;2023-04-21T10:54:43;18;17;
55754;PMS5003;41674;52.290;-1.474;2023-04-21T10:57:12;19;17;
55754;PMS5003;41674;52.290;-1.474;2023-04-21T10:59:40;17;16;
55754;PMS5003;41674;52.290;-1.474;2023-04-21T11:02:10;18;13;
55754;PMS5003;41674;52.290;-1.474;2023-04-21T11:04:39;17;15;
55754;PMS5003;41674;52.290;-1.474;2023-04-21T11:07:09;12;10;
55754;PMS5003;41674;52.290;-1.474;2023-04-21T11:09:39;18;16;
55754;PMS5003;41674;52.290;-1.474;2023-04-21T11:12:09;16;15;
55754;PMS5003;41674;52.290;-1.474;2023-04-21T11:14:37;15;15;
55754;PMS5003;41674;52.290;-1.474;2023-04-21T11:17:10;18;17;
55754;PMS5003;41674;52.290;-1.474;2023-04-21T11:19:36;13;13;
55754;PMS5003;41674;52.290;-1.474;2023-04-21T11:22:05;16;15;
55754;PMS5003;41674;52.290;-1.474;2023-04-21T11:24:35;14;13;
55754;PMS5003;41674;52.290;-1.474;2023-04-21T11:27:07;20;18;
55754;PMS5003;41674;52.290;-1.474;2023-04-21T11:29:33;15;15;
55754;PMS5003;41674;52.290;-1.474;2023-04-21T11:32:05;19;15;
55754;PMS5003;41674;52.290;-1.474;2023-04-21T11:34:32;16;15;
55754;PMS5003;41674;52.290;-1.474;2023-04-21T11:37:01;18;16;
55754;PMS5003;41674;52.290;-1.474;2023-04-21T11:39:30;17;17;
55754;PMS5003;41674;52.290;-1.474;2023-04-21T11:42:00;17;17;
55754;PMS5003;41674;52.290;-1.474;2023-04-21T11:44:30;17;15;
55754;PMS5003;41674;52.290;-1.474;2023-04-21T11:46:58;16;15;
55754;PMS5003;41674;52.290;-1.474;2023-04-21T11:49:27;16;14;
55754;PMS5003;41674;52.290;-1.474;2023-04-21T11:51:56;16;16;
55754;PMS5003;41674;52.290;-1.474;2023-04-21T11:54:27;16;16;
55754;PMS5003;41674;52.290;-1.474;2023-04-21T11:56:55;18;17;
55754;PMS5003;41674;52.290;-1.474;2023-04-21T11:59:24;20;19;
55754;PMS5003;41674;52.290;-1.474;2023-04-21T12:01:54;14;14;
55754;PMS5003;41674;52.290;-1.474;2023-04-21T12:04:24;11;9;
55754;PMS5003;41674;52.290;-1.474;2023-04-21T12:06:55;13;12;
55754;PMS5003;41674;52.290;-1.474;2023-04-21T12:09:22;17;15;
55754;PMS5003;41674;52.290;-1.474;2023-04-21T12:11:52;19;17;
55754;PMS5003;41674;52.290;-1.474;2023-04-21T12:14:21;19;16;
55754;PMS5003;41674;52.290;-1.474;2023-04-21T12:16:50;20;19;
55754;PMS5003;41674;52.290;-1.474;2023-04-21T12:19:22;21;19;
55754;PMS5003;41674;52.290;-1.474;2023-04-21T12:21:51;17;14;
55754;PMS5003;41674;52.290;-1.474;2023-04-21T12:24:17;17;15;
55754;PMS5003;41674;52.290;-1.474;2023-04-21T12:26:47;17;14;
55754;PMS5003;41674;52.290;-1.474;2023-04-21T12:29:16;17;16;
55754;PMS5003;41674;52.290;-1.474;2023-04-21T12:31:46;20;18;
55754;PMS5003;41674;52.290;-1.474;2023-04-21T12:34:15;16;15;
55754;PMS5003;41674;52.290;-1.474;2023-04-21T12:36:45;13;12;
55754;PMS5003;41674;52.290;-1.474;2023-04-21T12:39:14;16;16;
55754;PMS5003;41674;52.290;-1.474;2023-04-21T12:41:44;18;15;
55754;PMS5003;41674;52.290;-1.474;2023-04-21T12:44:13;21;16;
55754;PMS5003;41674;52.290;-1.474;2023-04-21T12:46:42;22;20;
55754;PMS5003;41674;52.290;-1.474;2023-04-21T12:49:12;22;19;
55754;PMS5003;41674;52.290;-1.474;2023-04-21T12:51:41;19;16;
55754;PMS5003;41674;52.290;-1.474;2023-04-21T12:54:11;16;16;
55754;PMS5003;41674;52.290;-1.474;2023-04-21T12:56:40;18;15;
55754;PMS5003;41674;52.290;-1.474;2023-04-21T12:59:09;25;18;
55754;PMS5003;41674;52.290;-1.474;2023-04-21T13:01:39;25;18;
55754;PMS5003;41674;52.290;-1.474;2023-04-21T13:04:08;21;19;
55754;PMS5003;41674;52.290;-1.474;2023-04-21T13:06:37;19;17;
55754;PMS5003;41674;52.290;-1.474;2023-04-21T13:09:06;25;23;
55754;PMS5003;41674;52.290;-1.474;2023-04-21T13:11:35;24;19;
55754;PMS5003;41674;52.290;-1.474;2023-04-21T13:14:05;24;20;
55754;PMS5003;41674;52.290;-1.474;2023-04-21T13:16:34;20;19;
55754;PMS5003;41674;52.290;-1.474;2023-04-21T13:19:04;19;18;
55754;PMS5003;41674;52.290;-1.474;2023-04-21T13:21:33;23;19;
55754;PMS5003;41674;52.290;-1.474;2023-04-21T13:24:02;25;21;
55754;PMS5003;41674;52.290;-1.474;2023-04-21T13:26:31;20;20;
55754;PMS5003;41674;52.290;-1.474;2023-04-21T13:29:00;22;19;
55754;PMS5003;41674;52.290;-1.474;2023-04-21T13:31:30;18;18;
55754;PMS5003;41674;52.290;-1.474;2023-04-21T13:33:59;19;17;
55754;PMS5003;41674;52.290;-1.474;2023-04-21T13:36:29;20;17;
55754;PMS5003;41674;52.290;-1.474;2023-04-21T13:38:58;16;16;
55754;PMS5003;41674;52.290;-1.474;2023-04-21T13:41:28;18;17;
55754;PMS5003;41674;52.290;-1.474;2023-04-21T13:43:57;19;16;
55754;PMS5003;41674;52.290;-1.474;2023-04-21T13:46:27;18;18;
55754;PMS5003;41674;52.290;-1.474;2023-04-21T13:48:57;20;18;
55754;PMS5003;41674;52.290;-1.474;2023-04-21T13:51:26;20;19;
55754;PMS5003;41674;52.290;-1.474;2023-04-21T13:53:56;22;17;
55754;PMS5003;41674;52.290;-1.474;2023-04-21T13:56:25;22;18;
55754;PMS5003;41674;52.290;-1.474;2023-04-21T13:58:55;18;17;
55754;PMS5003;41674;52.290;-1.474;2023-04-21T14:01:25;18;18;
55754;PMS5003;41674;52.290;-1.474;2023-04-21T14:03:54;23;19;
55754;PMS5003;41674;52.290;-1.474;2023-04-21T14:06:24;24;21;
55754;PMS5003;41674;52.290;-1.474;2023-04-21T14:08:53;27;25;
55754;PMS5003;41674;52.290;-1.474;2023-04-21T14:11:22;24;19;
55754;PMS5003;41674;52.290;-1.474;2023-04-21T14:13:51;23;20;
55754;PMS5003;41674;52.290;-1.474;2023-04-21T14:16:20;21;19;
55754;PMS5003;41674;52.290;-1.474;2023-04-21T14:18:50;19;19;
55754;PMS5003;41674;52.290;-1.474;2023-04-21T14:21:19;19;18;
55754;PMS5003;41674;52.290;-1.474;2023-04-21T14:23:48;19;18;
55754;PMS5003;41674;52.290;-1.474;2023-04-21T14:26:18;21;20;
55754;PMS5003;41674;52.290;-1.474;2023-04-21T14:28:48;14;14;
55754;PMS5003;41674;52.290;-1.474;2023-04-21T14:31:16;18;16;
55754;PMS5003;41674;52.290;-1.474;2023-04-21T14:33:46;18;17;
55754;PMS5003;41674;52.290;-1.474;2023-04-21T14:36:16;19;16;
55754;PMS5003;41674;52.290;-1.474;2023-04-21T14:38:45;16;15;
55754;PMS5003;41674;52.290;-1.474;2023-04-21T14:41:14;20;20;
55754;PMS5003;41674;52.290;-1.474;2023-04-21T14:43:44;23;19;
55754;PMS5003;41674;52.290;-1.474;2023-04-21T14:46:13;19;18;
55754;PMS5003;41674;52.290;-1.474;2023-04-21T14:48:42;25;22;
55754;PMS5003;41674;52.290;-1.474;2023-04-21T14:51:11;18;17;
55754;PMS5003;41674;52.290;-1.474;2023-04-21T14:53:41;25;19;
55754;PMS5003;41674;52.290;-1.474;2023-04-21T14:56:11;20;16;
55754;PMS5003;41674;52.290;-1.474;2023-04-21T14:58:40;16;16;
55754;PMS5003;41674;52.290;-1.474;2023-04-21T15:01:10;17;15;
55754;PMS5003;41674;52.290;-1.474;2023-04-21T15:03:39;22;18;
55754;PMS5003;41674;52.290;-1.474;2023-04-21T15:06:08;21;19;
55754;PMS5003;41674;52.290;-1.474;2023-04-21T15:08:38;19;16;
55754;PMS5003;41674;52.290;-1.474;2023-04-21T15:11:08;16;14;
55754;PMS5003;41674;52.290;-1.474;2023-04-21T15:13:37;15;15;
55754;PMS5003;41674;52.290;-1.474;2023-04-21T15:16:07;17;15;
55754;PMS5003;41674;52.290;-1.474;2023-04-21T15:18:36;16;16;
55754;PMS5003;41674;52.290;-1.474;2023-04-21T15:21:05;14;14;
55754;PMS5003;41674;52.290;-1.474;2023-04-21T15:23:35;15;15;
55754;PMS5003;41674;52.290;-1.474;2023-04-21T15:26:04;20;16;
55754;PMS5003;41674;52.290;-1.474;2023-04-21T15:28:34;14;13;
55754;PMS5003;41674;52.290;-1.474;2023-04-21T15:31:03;17;17;
55754;PMS5003;41674;52.290;-1.474;2023-04-21T15:33:32;20;19;
55754;PMS5003;41674;52.290;-1.474;2023-04-21T15:36:02;20;16;
55754;PMS5003;41674;52.290;-1.474;2023-04-21T15:38:31;18;17;
55754;PMS5003;41674;52.290;-1.474;2023-04-21T15:41:01;17;17;
55754;PMS5003;41674;52.290;-1.474;2023-04-21T15:43:30;27;22;
55754;PMS5003;41674;52.290;-1.474;2023-04-21T15:46:00;20;18;
55754;PMS5003;41674;52.290;-1.474;2023-04-21T15:48:29;18;17;
55754;PMS5003;41674;52.290;-1.474;2023-04-21T15:50:59;25;23;
55754;PMS5003;41674;52.290;-1.474;2023-04-21T15:53:28;23;20;
55754;PMS5003;41674;52.290;-1.474;2023-04-21T15:55:57;25;22;
55754;PMS5003;41674;52.290;-1.474;2023-04-21T15:58:26;24;22;
55754;PMS5003;41674;52.290;-1.474;2023-04-21T16:00:56;20;19;
55754;PMS5003;41674;52.290;-1.474;2023-04-21T16:03:25;18;17;
55754;PMS5003;41674;52.290;-1.474;2023-04-21T16:05:55;22;18;
55754;PMS5003;41674;52.290;-1.474;2023-04-21T16:08:24;20;18;
55754;PMS5003;41674;52.290;-1.474;2023-04-21T16:10:54;25;24;
55754;PMS5003;41674;52.290;-1.474;2023-04-21T16:13:23;23;22;
55754;PMS5003;41674;52.290;-1.474;2023-04-21T16:15:53;23;20;
55754;PMS5003;41674;52.290;-1.474;2023-04-21T16:18:22;23;19;
55754;PMS5003;41674;52.290;-1.474;2023-04-21T16:20:51;22;19;
55754;PMS5003;41674;52.290;-1.474;2023-04-21T16:23:20;21;21;
55754;PMS5003;41674;52.290;-1.474;2023-04-21T16:25:50;23;21;
55754;PMS5003;41674;52.290;-1.474;2023-04-21T16:28:19;22;21;